createdAt,value
2023-10-22T00:01:00.113Z,37.13
2023-10-22T00:03:27.242Z,37.88
2023-10-22T00:05:54.287Z,36.72
2023-10-22T00:08:21.226Z,42.08
2023-10-22T00:10:48.191Z,33.60
2023-10-22T00:13:15.094Z,31.35
2023-10-22T00:15:42.114Z,37.40
2023-10-22T00:18:09.202Z,33.25
2023-10-22T00:20:38.698Z,33.17
2023-10-22T00:23:05.632Z,34.83
2023-10-22T00:25:36.045Z,34.05
2023-10-22T00:28:03.434Z,37.28
2023-10-22T00:30:30.798Z,36.08
2023-10-22T00:32:58.273Z,34.47
2023-10-22T00:35:27.548Z,36.78
2023-10-22T00:37:54.680Z,35.88
2023-10-22T00:40:21.620Z,37.20
2023-10-22T00:42:48.519Z,37.78
2023-10-22T00:45:15.549Z,37.50
2023-10-22T00:47:43.011Z,40.38
2023-10-22T00:50:10.711Z,38.35
2023-10-22T00:52:37.693Z,39.83
2023-10-22T00:55:05.072Z,39.85
2023-10-22T00:57:32.090Z,41.97
2023-10-22T00:59:59.123Z,36.55
2023-10-22T01:02:26.121Z,39.15
2023-10-22T01:04:53.083Z,34.33
2023-10-22T01:07:20.620Z,32.55
2023-10-22T01:09:47.586Z,37.10
2023-10-22T01:12:14.611Z,33.95
2023-10-22T01:14:41.656Z,36.80
2023-10-22T01:17:08.577Z,41.17
2023-10-22T01:19:35.499Z,34.03
2023-10-22T01:22:02.444Z,32.75
2023-10-22T01:24:33.633Z,37.20
2023-10-22T01:27:00.724Z,31.70
2023-10-22T01:29:27.746Z,34.42
2023-10-22T01:31:54.697Z,33.75
2023-10-22T01:34:21.671Z,33.03
2023-10-22T01:36:48.591Z,32.75
2023-10-22T01:39:15.584Z,35.90
2023-10-22T01:41:42.889Z,36.13
2023-10-22T01:44:09.894Z,33.63
2023-10-22T01:46:37.058Z,34.17
2023-10-22T01:49:04.115Z,35.05
2023-10-22T01:51:31.044Z,35.80
2023-10-22T01:53:58.100Z,33.40
2023-10-22T01:56:25.099Z,37.65
2023-10-22T01:58:52.018Z,43.08
2023-10-22T02:01:19.029Z,44.45
2023-10-22T02:03:46.285Z,37.35
2023-10-22T02:06:14.591Z,30.85
2023-10-22T02:08:42.696Z,33.17
2023-10-22T02:11:09.660Z,32.30
2023-10-22T02:13:36.573Z,35.75
2023-10-22T02:16:03.656Z,31.42
2023-10-22T02:18:31.494Z,30.40
2023-10-22T02:21:00.993Z,33.40
2023-10-22T02:23:29.093Z,30.08
2023-10-22T02:25:56.283Z,31.55
2023-10-22T02:28:23.219Z,39.42
2023-10-22T02:30:50.249Z,31.98
2023-10-22T02:33:17.449Z,35.90
2023-10-22T02:35:45.674Z,30.52
2023-10-22T02:38:15.374Z,31.83
2023-10-22T02:40:42.905Z,34.00
2023-10-22T02:43:10.363Z,33.38
2023-10-22T02:45:37.285Z,34.60
2023-10-22T02:48:04.573Z,31.25
2023-10-22T02:50:31.605Z,28.45
2023-10-22T02:52:58.553Z,30.30
2023-10-22T02:55:25.510Z,30.70
2023-10-22T02:57:52.487Z,30.60
2023-10-22T03:00:33.292Z,29.65
2023-10-22T03:03:06.542Z,29.25
2023-10-22T03:05:36.832Z,29.65
2023-10-22T03:08:03.880Z,29.30
2023-10-22T03:10:30.792Z,29.02
2023-10-22T03:12:57.740Z,32.55
2023-10-22T03:15:24.986Z,34.75
2023-10-22T03:17:54.471Z,31.33
2023-10-22T03:20:21.539Z,28.33
2023-10-22T03:22:48.483Z,30.75
2023-10-22T03:25:15.510Z,24.50
2023-10-22T03:27:42.437Z,29.27
2023-10-22T03:30:09.960Z,29.00
2023-10-22T03:32:37.342Z,25.55
2023-10-22T03:35:04.449Z,25.88
2023-10-22T03:37:31.396Z,26.73
2023-10-22T03:39:58.333Z,25.98
2023-10-22T03:42:25.399Z,26.55
2023-10-22T03:44:52.297Z,24.75
2023-10-22T03:47:19.236Z,25.85
2023-10-22T03:49:46.174Z,25.15
2023-10-22T03:52:13.155Z,26.02
2023-10-22T03:54:40.407Z,24.95
2023-10-22T03:57:07.381Z,24.38
2023-10-22T03:59:34.342Z,23.85
2023-10-22T04:02:01.235Z,27.60
2023-10-22T04:04:28.277Z,24.77
2023-10-22T04:06:55.301Z,26.38
2023-10-22T04:09:22.269Z,22.33
2023-10-22T04:11:49.165Z,26.08
2023-10-22T04:14:16.044Z,27.30
2023-10-22T04:16:43.143Z,24.45
2023-10-22T04:19:10.112Z,24.75
2023-10-22T04:21:37.063Z,27.40
2023-10-22T04:24:04.329Z,93.93
2023-10-22T04:26:31.340Z,41.42
2023-10-22T04:28:58.310Z,306.10
2023-10-22T04:31:25.242Z,272.95
2023-10-22T04:33:52.138Z,333.00
2023-10-22T04:36:19.562Z,209.45
2023-10-22T04:38:46.587Z,173.27
2023-10-22T04:41:14.005Z,397.88
2023-10-22T04:43:41.026Z,507.92
2023-10-22T04:46:07.965Z,150.68
2023-10-22T04:48:34.964Z,59.50
2023-10-22T04:51:06.441Z,23.75
2023-10-22T04:53:34.831Z,152.77
2023-10-22T04:56:02.284Z,218.30
2023-10-22T04:58:29.548Z,146.45
2023-10-22T05:00:56.868Z,68.18
2023-10-22T05:03:24.248Z,39.30
2023-10-22T05:05:51.667Z,40.13
2023-10-22T05:08:18.632Z,36.47
2023-10-22T05:10:45.568Z,31.48
2023-10-22T05:13:12.496Z,31.33
2023-10-22T05:15:39.435Z,28.13
2023-10-22T05:18:07.635Z,35.90
2023-10-22T05:20:35.463Z,26.00
2023-10-22T05:23:03.888Z,25.00
2023-10-22T05:25:30.921Z,31.98
2023-10-22T05:27:57.881Z,30.27
2023-10-22T05:30:24.798Z,26.83
2023-10-22T05:32:52.966Z,24.17
2023-10-22T05:35:19.992Z,23.15
2023-10-22T05:37:46.927Z,22.60
2023-10-22T05:40:14.143Z,23.58
2023-10-22T05:42:41.064Z,23.35
2023-10-22T05:45:08.104Z,25.30
2023-10-22T05:47:35.075Z,27.10
2023-10-22T05:50:02.264Z,22.67
2023-10-22T05:52:29.534Z,21.08
2023-10-22T05:54:56.574Z,20.05
2023-10-22T05:57:23.661Z,28.25
2023-10-22T05:59:51.108Z,24.92
2023-10-22T06:02:18.099Z,20.50
2023-10-22T06:04:45.080Z,19.33
2023-10-22T06:07:11.997Z,21.17
2023-10-22T06:09:38.917Z,35.92
2023-10-22T06:12:06.079Z,36.38
2023-10-22T06:14:33.673Z,113.35
2023-10-22T06:17:00.621Z,214.60
2023-10-22T06:19:27.568Z,81.47
2023-10-22T06:21:54.540Z,39.38
2023-10-22T06:24:21.548Z,114.93
2023-10-22T06:26:48.601Z,52.10
2023-10-22T06:29:15.541Z,29.52
2023-10-22T06:31:42.513Z,62.97
2023-10-22T06:34:09.520Z,34.65
2023-10-22T06:36:36.518Z,44.10
2023-10-22T06:39:03.492Z,50.88
2023-10-22T06:41:30.454Z,57.70
2023-10-22T06:43:57.365Z,40.63
2023-10-22T06:46:24.312Z,79.95
2023-10-22T06:48:51.375Z,48.33
2023-10-22T06:51:19.034Z,38.38
2023-10-22T06:53:48.037Z,35.47
2023-10-22T06:56:15.732Z,28.42
2023-10-22T06:58:42.794Z,21.75
2023-10-22T07:01:12.661Z,19.25
2023-10-22T07:03:43.089Z,20.15
2023-10-22T07:06:10.353Z,21.83
2023-10-22T07:08:37.689Z,31.58
2023-10-22T07:11:04.840Z,31.08
2023-10-22T07:13:31.929Z,24.63
2023-10-22T07:15:58.978Z,22.17
2023-10-22T07:18:26.124Z,33.35
2023-10-22T07:20:53.315Z,22.23
2023-10-22T07:23:20.313Z,22.75
2023-10-22T07:25:47.694Z,70.95
2023-10-22T07:28:14.771Z,75.38
2023-10-22T07:30:48.010Z,101.82
2023-10-22T07:33:15.115Z,44.72
2023-10-22T07:35:52.262Z,41.13
2023-10-22T07:38:19.180Z,32.83
2023-10-22T07:40:46.121Z,52.83
2023-10-22T07:43:13.022Z,50.53
2023-10-22T07:45:39.958Z,56.75
2023-10-22T07:48:07.057Z,54.13
2023-10-22T07:50:34.073Z,43.78
2023-10-22T07:53:00.990Z,30.50
2023-10-22T07:55:27.913Z,31.95
2023-10-22T07:57:54.863Z,31.63
2023-10-22T08:00:21.913Z,38.03
2023-10-22T08:02:48.935Z,70.05
2023-10-22T08:05:17.155Z,38.22
2023-10-22T08:07:44.356Z,42.67
2023-10-22T08:10:11.394Z,71.22
2023-10-22T08:12:38.388Z,56.17
2023-10-22T08:15:05.858Z,64.75
2023-10-22T08:17:32.835Z,83.10
2023-10-22T08:19:59.852Z,104.30
2023-10-22T08:22:26.791Z,99.47
2023-10-22T08:24:53.747Z,86.70
2023-10-22T08:27:20.690Z,75.75
2023-10-22T08:29:47.664Z,58.25
2023-10-22T08:32:14.644Z,63.97
2023-10-22T08:34:41.612Z,59.92
2023-10-22T08:37:08.565Z,49.60
2023-10-22T08:39:35.511Z,58.53
2023-10-22T08:42:09.798Z,46.67
2023-10-22T08:44:46.277Z,41.40
2023-10-22T08:47:13.607Z,26.67
2023-10-22T08:49:40.834Z,29.80
2023-10-22T08:52:08.425Z,29.90
2023-10-22T08:54:36.725Z,33.03
2023-10-22T08:57:04.285Z,35.38
2023-10-22T08:59:31.318Z,36.53
2023-10-22T09:01:58.578Z,95.25
2023-10-22T09:04:25.649Z,53.78
2023-10-22T09:06:55.462Z,57.10
2023-10-22T09:09:29.286Z,44.88
2023-10-22T09:11:57.445Z,34.38
2023-10-22T09:14:24.922Z,43.15
2023-10-22T09:16:51.991Z,47.05
2023-10-22T09:19:38.401Z,34.92
2023-10-22T09:22:05.702Z,34.83
2023-10-22T09:24:48.324Z,103.20
2023-10-22T09:27:24.619Z,54.40
2023-10-22T09:29:51.565Z,48.08
2023-10-22T09:32:18.666Z,45.83
2023-10-22T09:34:45.641Z,30.98
2023-10-22T09:37:12.561Z,24.25
2023-10-22T09:39:44.366Z,28.65
2023-10-22T09:42:17.257Z,65.90
2023-10-22T09:44:45.585Z,108.57
2023-10-22T09:47:20.869Z,134.00
2023-10-22T09:49:52.818Z,129.13
2023-10-22T09:52:23.784Z,68.32
2023-10-22T09:54:55.003Z,96.20
2023-10-22T09:57:29.724Z,193.57
2023-10-22T09:59:57.035Z,130.20
2023-10-22T10:02:24.658Z,114.05
2023-10-22T10:04:52.366Z,92.20
2023-10-22T10:07:19.358Z,51.92
2023-10-22T10:09:47.102Z,36.53
2023-10-22T10:12:15.629Z,25.92
2023-10-22T10:14:47.159Z,30.75
2023-10-22T10:17:16.327Z,26.92
2023-10-22T10:19:43.413Z,30.95
2023-10-22T10:22:10.644Z,24.95
2023-10-22T10:24:37.808Z,21.73
2023-10-22T10:27:07.778Z,14.05
2023-10-22T10:29:34.737Z,18.75
2023-10-22T10:32:16.903Z,17.83
2023-10-22T10:34:46.723Z,16.58
2023-10-22T10:37:21.146Z,19.08
2023-10-22T10:39:54.298Z,21.83
2023-10-22T10:42:30.320Z,18.38
2023-10-22T10:44:57.285Z,17.83
2023-10-22T10:47:24.279Z,19.42
2023-10-22T10:50:06.449Z,17.33
2023-10-22T10:52:36.417Z,15.80
2023-10-22T10:55:23.574Z,15.90
2023-10-22T10:57:52.937Z,17.73
2023-10-22T11:00:21.447Z,16.27
2023-10-22T11:02:50.934Z,15.20
2023-10-22T11:05:30.406Z,15.93
2023-10-22T11:07:57.877Z,16.23
2023-10-22T11:10:24.800Z,15.60
2023-10-22T11:12:51.779Z,22.95
2023-10-22T11:15:18.827Z,28.50
2023-10-22T11:17:45.940Z,22.00
2023-10-22T11:20:13.113Z,14.77
2023-10-22T11:22:40.312Z,17.90
2023-10-22T11:25:11.694Z,22.15
2023-10-22T11:27:39.896Z,23.10
2023-10-22T11:30:08.164Z,22.90
2023-10-22T11:32:35.222Z,26.90
2023-10-22T11:35:06.430Z,18.58
2023-10-22T11:37:35.595Z,19.40
2023-10-22T11:40:02.645Z,58.50
2023-10-22T11:42:33.621Z,24.75
2023-10-22T11:45:00.700Z,24.75
2023-10-22T11:47:31.421Z,23.50
2023-10-22T11:49:58.605Z,22.58
2023-10-22T11:52:37.508Z,22.60
2023-10-22T11:55:05.776Z,24.17
2023-10-22T11:57:32.795Z,29.50
2023-10-22T11:59:59.843Z,30.20
2023-10-22T12:02:26.873Z,38.60
2023-10-22T12:04:53.848Z,32.35
2023-10-22T12:07:20.793Z,20.92
2023-10-22T12:09:47.701Z,31.45
2023-10-22T12:12:14.737Z,28.38
2023-10-22T12:14:41.707Z,31.67
2023-10-22T12:17:08.808Z,35.00
2023-10-22T12:19:36.123Z,25.10
2023-10-22T12:22:03.046Z,25.88
2023-10-22T12:24:29.995Z,35.97
2023-10-22T12:26:57.044Z,33.22
2023-10-22T12:29:24.131Z,22.27
2023-10-22T12:31:51.306Z,23.88
2023-10-22T12:34:21.481Z,23.83
2023-10-22T12:36:48.415Z,24.85
2023-10-22T12:39:15.350Z,15.93
2023-10-22T12:41:42.347Z,16.05
2023-10-22T12:44:09.286Z,16.20
2023-10-22T12:46:36.291Z,16.13
2023-10-22T12:49:03.983Z,17.02
2023-10-22T12:51:31.081Z,16.67
2023-10-22T12:53:58.059Z,17.55
2023-10-22T12:56:25.089Z,15.18
2023-10-22T12:58:52.032Z,14.63
2023-10-22T13:01:18.962Z,13.88
2023-10-22T13:03:45.969Z,15.05
2023-10-22T13:06:14.074Z,12.10
2023-10-22T13:08:41.030Z,13.48
2023-10-22T13:11:08.050Z,15.25
2023-10-22T13:13:34.974Z,9.70
2023-10-22T13:16:01.931Z,10.20
2023-10-22T13:18:29.122Z,9.38
2023-10-22T13:20:56.574Z,8.15
2023-10-22T13:23:23.540Z,7.93
2023-10-22T13:25:50.535Z,18.60
2023-10-22T13:28:17.500Z,7.97
2023-10-22T13:30:44.406Z,8.40
2023-10-22T13:33:11.804Z,12.90
2023-10-22T13:35:38.746Z,7.70
2023-10-22T13:38:05.667Z,10.38
2023-10-22T13:40:32.614Z,9.00
2023-10-22T13:42:59.547Z,7.15
2023-10-22T13:45:26.572Z,9.77
2023-10-22T13:47:53.559Z,13.82
2023-10-22T13:50:20.568Z,23.27
2023-10-22T13:52:47.621Z,9.80
2023-10-22T13:55:15.188Z,36.35
2023-10-22T13:57:42.472Z,7.13
2023-10-22T14:00:10.132Z,8.27
2023-10-22T14:02:38.838Z,10.90
2023-10-22T14:05:10.018Z,13.05
2023-10-22T14:07:38.335Z,25.63
2023-10-22T14:10:06.157Z,8.18
2023-10-22T14:12:33.129Z,15.88
2023-10-22T14:15:00.271Z,6.07
2023-10-22T14:17:27.263Z,5.65
2023-10-22T14:19:55.165Z,7.93
2023-10-22T14:22:22.406Z,79.88
2023-10-22T14:24:53.618Z,4.43
2023-10-22T14:27:21.441Z,25.65
2023-10-22T14:29:48.458Z,4.47
2023-10-22T14:32:15.477Z,10.77
2023-10-22T14:34:42.470Z,4.65
2023-10-22T14:37:10.843Z,7.60
2023-10-22T14:39:38.545Z,9.85
2023-10-22T14:42:05.736Z,3.88
2023-10-22T14:44:32.726Z,3.55
2023-10-22T14:46:59.733Z,3.78
2023-10-22T14:49:26.659Z,5.38
2023-10-22T14:51:53.653Z,4.35
2023-10-22T14:54:20.675Z,5.07
2023-10-22T14:56:47.594Z,16.90
2023-10-22T14:59:14.797Z,7.57
2023-10-22T15:01:41.796Z,5.60
2023-10-22T15:04:08.957Z,8.32
2023-10-22T15:06:36.081Z,17.00
2023-10-22T15:09:03.159Z,12.60
2023-10-22T15:11:30.110Z,9.00
2023-10-22T15:13:56.975Z,7.32
2023-10-22T15:16:24.144Z,5.63
2023-10-22T15:18:51.164Z,7.10
2023-10-22T15:21:18.129Z,7.05
2023-10-22T15:23:45.116Z,6.20
2023-10-22T15:26:12.470Z,5.93
2023-10-22T15:28:39.414Z,5.50
2023-10-22T15:31:06.359Z,6.18
2023-10-22T15:33:33.301Z,5.07
2023-10-22T15:36:00.830Z,4.50
2023-10-22T15:38:27.997Z,5.03
2023-10-22T15:41:00.422Z,6.00
2023-10-22T15:43:27.338Z,6.15
2023-10-22T15:45:54.360Z,5.80
2023-10-22T15:48:21.383Z,6.03
2023-10-22T15:50:48.326Z,5.55
2023-10-22T15:53:15.351Z,5.53
2023-10-22T15:55:42.311Z,6.50
2023-10-22T15:58:09.237Z,5.78
2023-10-22T16:00:37.057Z,7.50
2023-10-22T16:03:05.017Z,5.13
2023-10-22T16:05:32.009Z,5.80
2023-10-22T16:07:58.952Z,6.93
2023-10-22T16:10:25.925Z,6.40
2023-10-22T16:12:53.165Z,5.20
2023-10-22T16:15:20.397Z,5.00
2023-10-22T16:17:47.407Z,5.18
2023-10-22T16:20:16.059Z,5.60
2023-10-22T16:22:43.037Z,5.65
2023-10-22T16:25:10.094Z,6.70
2023-10-22T16:27:37.198Z,8.40
2023-10-22T16:30:05.074Z,5.85
2023-10-22T16:32:32.253Z,7.10
2023-10-22T16:34:59.334Z,5.80
2023-10-22T16:37:26.307Z,7.25
2023-10-22T16:39:53.408Z,5.25
2023-10-22T16:42:20.399Z,6.38
2023-10-22T16:44:51.059Z,4.68
2023-10-22T16:47:18.208Z,6.38
2023-10-22T16:49:45.241Z,9.43
2023-10-22T16:52:12.167Z,9.50
2023-10-22T16:54:39.135Z,14.02
2023-10-22T16:57:06.128Z,5.80
2023-10-22T16:59:33.076Z,7.60
2023-10-22T17:02:00.012Z,6.10
2023-10-22T17:04:26.928Z,14.20
2023-10-22T17:06:53.890Z,9.13
2023-10-22T17:09:20.877Z,6.72
2023-10-22T17:11:47.908Z,5.60
2023-10-22T17:14:14.870Z,7.90
2023-10-22T17:16:41.946Z,8.30
2023-10-22T17:19:09.089Z,35.35
2023-10-22T17:21:36.510Z,37.05
2023-10-22T17:24:03.627Z,21.20
2023-10-22T17:26:30.706Z,11.60
2023-10-22T17:28:57.687Z,59.08
2023-10-22T17:31:24.681Z,16.15
2023-10-22T17:36:21.501Z,20.42
2023-10-22T17:38:48.460Z,12.77
2023-10-22T17:41:15.399Z,11.25
2023-10-22T17:43:42.362Z,13.82
2023-10-22T17:46:09.262Z,18.10
2023-10-22T17:48:36.329Z,12.90
2023-10-22T17:51:04.294Z,11.32
2023-10-22T17:53:31.507Z,14.48
2023-10-22T17:56:09.927Z,10.07
2023-10-22T17:58:39.094Z,8.90
2023-10-22T18:01:06.366Z,13.95
2023-10-22T18:03:33.963Z,10.82
2023-10-22T18:06:02.535Z,12.20
2023-10-22T18:08:29.865Z,8.90
2023-10-22T18:10:58.362Z,10.95
2023-10-22T18:13:26.553Z,12.05
2023-10-22T18:15:57.121Z,14.77
2023-10-22T18:18:24.923Z,9.43
2023-10-22T18:20:52.384Z,9.48
2023-10-22T18:23:19.716Z,11.30
2023-10-22T18:25:46.781Z,12.05
2023-10-22T18:28:13.773Z,17.40
2023-10-22T18:30:43.672Z,11.18
2023-10-22T18:33:10.859Z,7.15
2023-10-22T18:35:37.887Z,13.63
2023-10-22T18:38:04.761Z,11.88
2023-10-22T18:40:31.779Z,12.80
2023-10-22T18:42:58.807Z,10.95
2023-10-22T18:45:25.956Z,10.48
2023-10-22T18:47:52.964Z,12.70
2023-10-22T18:50:19.915Z,11.25
2023-10-22T18:52:46.886Z,16.23
2023-10-22T18:55:13.831Z,13.15
2023-10-22T18:57:40.834Z,12.85
2023-10-22T19:00:09.335Z,11.85
2023-10-22T19:02:36.293Z,12.73
2023-10-22T19:05:03.481Z,13.80
2023-10-22T19:07:30.394Z,12.80
2023-10-22T19:09:57.342Z,18.27
2023-10-22T19:12:24.327Z,16.30
2023-10-22T19:14:51.262Z,14.55
2023-10-22T19:17:18.222Z,15.13
2023-10-22T19:19:49.524Z,15.90
2023-10-22T19:22:17.599Z,19.70
2023-10-22T19:24:44.613Z,13.80
2023-10-22T19:27:11.609Z,21.38
2023-10-22T19:29:41.554Z,26.17
2023-10-22T19:32:08.501Z,26.98
2023-10-22T19:34:35.891Z,41.92
2023-10-22T19:37:02.912Z,56.22
2023-10-22T19:39:31.467Z,66.47
2023-10-22T19:41:58.546Z,58.35
2023-10-22T19:44:25.470Z,46.13
2023-10-22T19:46:52.610Z,48.72
2023-10-22T19:49:19.578Z,54.95
2023-10-22T19:51:46.559Z,42.38
2023-10-22T19:54:13.557Z,31.42
2023-10-22T19:56:40.523Z,26.83
2023-10-22T19:59:07.481Z,23.88
2023-10-22T20:01:34.424Z,22.02
2023-10-22T20:04:01.537Z,20.10
2023-10-22T20:06:28.556Z,18.55
2023-10-22T20:08:55.620Z,20.95
2023-10-22T20:11:22.838Z,19.20
2023-10-22T20:13:50.030Z,19.83
2023-10-22T20:16:22.539Z,17.50
2023-10-22T20:21:20.935Z,15.13
2023-10-22T20:23:48.808Z,14.07
2023-10-22T20:26:15.793Z,17.30
2023-10-22T20:28:44.536Z,13.70
2023-10-22T20:31:12.879Z,13.70
2023-10-22T20:33:44.418Z,14.38
2023-10-22T20:36:11.595Z,15.40
2023-10-22T20:38:39.313Z,14.23
2023-10-22T20:41:08.151Z,16.20
2023-10-22T20:43:35.433Z,13.38
2023-10-22T20:46:07.413Z,12.68
2023-10-22T20:48:36.346Z,13.13
2023-10-22T20:51:21.729Z,14.48
2023-10-22T20:53:48.955Z,13.05
2023-10-22T20:56:16.094Z,13.38
2023-10-22T20:58:43.444Z,14.20
2023-10-22T21:01:15.142Z,16.70
2023-10-22T21:03:44.988Z,14.65
2023-10-22T21:06:13.524Z,13.98
2023-10-22T21:08:40.686Z,14.45
2023-10-22T21:11:07.704Z,13.10
2023-10-22T21:13:34.697Z,14.30
2023-10-22T21:16:01.759Z,15.88
2023-10-22T21:18:28.970Z,10.77
2023-10-22T21:21:00.451Z,13.45
2023-10-22T21:23:28.008Z,13.05
2023-10-22T21:25:55.258Z,11.25
2023-10-22T21:28:22.250Z,12.00
2023-10-22T21:30:49.386Z,12.07
2023-10-22T21:33:16.875Z,9.82
2023-10-22T21:35:44.912Z,11.63
2023-10-22T21:38:11.919Z,11.25
2023-10-22T21:40:38.850Z,11.52
2023-10-22T21:43:05.795Z,9.80
2023-10-22T21:45:32.838Z,10.85
2023-10-22T21:47:59.978Z,11.15
2023-10-22T21:50:26.957Z,9.00
2023-10-22T21:52:53.972Z,11.35
2023-10-22T21:55:20.880Z,12.77
2023-10-22T21:57:49.868Z,9.38
2023-10-22T22:00:17.449Z,11.25
2023-10-22T22:02:44.481Z,8.68
2023-10-22T22:05:11.501Z,12.90
2023-10-22T22:07:38.445Z,9.45
2023-10-22T22:10:06.010Z,11.55
2023-10-22T22:12:33.210Z,9.85
2023-10-22T22:15:00.256Z,9.30
2023-10-22T22:17:27.205Z,7.13
2023-10-22T22:19:54.257Z,7.53
2023-10-22T22:22:21.165Z,7.90
2023-10-22T22:24:48.159Z,18.35
2023-10-22T22:27:15.123Z,10.85
2023-10-22T22:29:42.088Z,8.40
2023-10-22T22:32:09.048Z,9.55
2023-10-22T22:34:36.084Z,9.70
2023-10-22T22:37:03.204Z,7.72
2023-10-22T22:39:30.183Z,8.80
2023-10-22T22:41:57.169Z,9.95
2023-10-22T22:44:24.078Z,7.50
2023-10-22T22:46:51.138Z,9.38
2023-10-22T22:49:18.187Z,11.85
2023-10-22T22:51:45.101Z,9.93
2023-10-22T22:54:12.182Z,9.38
2023-10-22T22:56:39.221Z,10.05
2023-10-22T22:59:06.325Z,13.43
2023-10-22T23:01:33.310Z,11.23
2023-10-22T23:04:00.270Z,10.00
2023-10-22T23:06:27.872Z,9.73
2023-10-22T23:08:54.851Z,10.20
2023-10-22T23:11:22.858Z,9.85
2023-10-22T23:13:49.779Z,7.65
2023-10-22T23:16:16.746Z,8.98
2023-10-22T23:18:44.457Z,7.95
2023-10-22T23:21:11.455Z,8.05
2023-10-22T23:23:38.467Z,8.15
2023-10-22T23:26:05.418Z,7.40
2023-10-22T23:28:32.373Z,8.13
2023-10-22T23:30:59.430Z,9.98
2023-10-22T23:33:26.461Z,8.80
2023-10-22T23:35:53.441Z,10.55
2023-10-22T23:38:20.374Z,7.38
2023-10-22T23:40:47.324Z,7.80
2023-10-22T23:43:14.301Z,7.72
2023-10-22T23:45:41.418Z,10.45
2023-10-22T23:48:08.444Z,9.45
2023-10-22T23:50:35.370Z,7.20
2023-10-22T23:53:02.314Z,7.80
2023-10-22T23:55:29.274Z,6.57
2023-10-22T23:57:56.188Z,12.43
